Latest Weather Observations for Coen Airport

IDQ60801

Issued at 12:02 pm EST Tuesday 28 April 2015 (issued every 30 minutes, with the page automatically refreshed every 10 minutes)

About weather observations | Map of weather stations | Latest weather observations for QLD | Other Formats
Station Details ID: 027073 Name: COEN AIRPORT Lat: -13.76 Lon: 143.12 Height: 159.3 m
Data from the previous 72 hours. | See also: Recent months at Coen Airport
Date/Time
EST
Temp
°C
App
Temp
°C
Dew
Point
Rel
Hum
%
Delta-T
°C
Wind Press
QNH
hPa
Press
MSL
hPa
Rain
since 9 am
mm
Dir
 
Spd
km/h
Gust
km/h
Spd
kts
Gust
kts
28/12:00pm 28.9 28.9 18.1 52 6.9 E 15 24 8 13 1014.3 - 0.0
28/11:30am 28.4 26.7 17.3 51 7.0 SE 22 32 12 17 1014.9 - 0.0
28/11:00am 28.5 29.9 18.6 55 6.4 E 9 19 5 10 1015.1 - 0.0
28/10:30am 27.7 28.2 18.4 57 6.0 ENE 13 19 7 10 1015.5 - 0.0
28/10:00am 27.0 27.3 18.0 58 5.7 ESE 13 20 7 11 1015.8 - 0.0
28/09:30am 26.1 26.3 17.7 60 5.3 E 13 20 7 11 1015.9 - 0.0
28/09:00am 25.3 26.2 18.5 66 4.3 SE 11 17 6 9 1015.8 1014.9 0.0
28/08:30am 24.3 25.3 18.7 71 3.6 SE 11 13 6 7 1015.7 - 0.0
28/08:00am 22.7 23.9 19.1 80 2.3 S 11 15 6 8 1015.6 - 0.0
28/07:30am 20.4 22.8 18.7 90 1.1 SSE 4 9 2 5 1015.3 - 0.0
28/07:00am 18.3 20.1 17.3 94 0.6 SE 4 7 2 4 1014.8 - 0.0
28/06:30am 17.9 19.0 16.6 92 0.8 SE 6 9 3 5 1014.4 - 0.0
28/06:00am 18.6 19.9 17.1 91 0.9 SSE 6 9 3 5 1014.1 1013.2 0.0
28/05:30am 18.8 20.4 16.9 89 1.2 S 4 7 2 4 1013.8 - 0.0
28/05:00am 19.3 21.2 16.7 85 1.6 ESE 2 7 1 4 1013.7 - 0.0
28/04:30am 20.4 21.9 18.0 86 1.5 SE 7 9 4 5 1013.7 - 0.0
28/04:00am 19.5 21.9 17.1 86 1.5 CALM 0 0 0 0 1013.7 - 0.0
28/03:30am 19.8 21.0 17.4 86 1.5 SE 7 9 4 5 1013.9 - 0.0
28/03:00am 20.6 21.6 17.8 84 1.7 SE 9 15 5 8 1014.1 1013.2 0.0
28/02:30am 20.1 21.3 17.3 84 1.7 SSE 7 11 4 6 1014.4 - 0.0
28/02:00am 20.9 22.2 17.5 81 2.1 SE 7 11 4 6 1014.7 - 0.0
28/01:30am 21.0 22.1 17.2 79 2.3 S 7 11 4 6 1015.2 - 0.0
28/01:00am 21.0 22.1 17.0 78 2.5 SE 7 9 4 5 1015.3 - 0.0
28/12:30am 21.7 23.0 17.1 75 2.8 SSE 6 9 3 5 1015.6 - 0.0
28/12:00am 21.7 23.6 16.6 73 3.1 SE 2 11 1 6 1015.9 1015.0 0.0
 
Date/Time
EST
Temp
°C
App
Temp
°C
Dew
Point
Rel
Hum
%
Delta-T
°C
Wind Press
QNH
hPa
Press
MSL
hPa
Rain
since 9 am
mm
Dir
 
Spd
km/h
Gust
km/h
Spd
kts
Gust
kts
27/11:30pm 22.7 23.6 16.7 69 3.7 ESE 7 11 4 6 1016.0 - 0.0
27/11:00pm 23.1 23.4 17.1 69 3.7 E 11 17 6 9 1016.0 - 0.0
27/10:30pm 23.1 23.9 17.3 70 3.6 E 9 15 5 8 1016.1 - 0.0
27/10:00pm 23.5 24.6 17.9 71 3.5 E 9 15 5 8 1015.9 - 0.0
27/09:30pm 23.5 24.7 18.2 72 3.3 E 9 13 5 7 1015.9 - 0.0
27/09:00pm 23.5 24.8 18.4 73 3.2 E 9 20 5 11 1015.7 1014.8 0.0
27/08:30pm 23.5 25.2 18.4 73 3.2 E 7 11 4 6 1015.5 - 0.0
27/08:00pm 23.3 25.5 18.4 74 3.1 ESE 4 11 2 6 1015.1 - 0.0
27/07:30pm 23.5 25.7 18.4 73 3.2 SSE 4 9 2 5 1014.7 - 0.0
27/07:00pm 24.1 26.4 18.5 71 3.6 E 4 11 2 6 1014.2 - 0.0
27/06:30pm 24.6 26.5 18.5 69 3.9 E 6 9 3 5 1013.9 - 0.0
27/06:00pm 25.7 26.1 18.1 63 4.8 E 13 20 7 11 1013.7 1012.8 0.0
27/05:30pm 26.7 26.5 17.7 57 5.7 E 15 22 8 12 1013.2 - 0.0
27/05:00pm 27.7 27.2 16.9 51 6.8 E 15 20 8 11 1012.8 - 0.0
27/04:30pm 28.4 28.3 17.0 50 7.2 ENE 13 22 7 12 1012.3 - 0.0
27/04:00pm 28.9 27.9 16.5 47 7.8 E 17 26 9 14 1012.2 - 0.0
27/03:30pm 29.0 28.0 17.5 49 7.3 ENE 19 32 10 17 1012.1 - 0.0
27/03:00pm 29.2 28.2 16.7 46 7.9 ENE 17 30 9 16 1012.2 1011.3 0.0
27/02:30pm 29.4 28.2 16.2 44 8.3 ENE 17 30 9 16 1012.4 - 0.0
27/02:00pm 29.2 27.6 16.4 46 8.0 ESE 20 32 11 17 1012.6 - 0.0
27/01:30pm 29.1 27.9 17.6 50 7.3 ENE 20 33 11 18 1012.8 - 0.0
27/01:00pm 29.0 28.4 18.4 52 6.8 ENE 19 28 10 15 1013.2 - 0.0
27/12:30pm 28.4 27.4 17.9 53 6.7 ENE 20 32 11 17 1013.5 - 0.0
27/12:00pm 30.1 30.2 19.2 52 7.1 ENE 17 28 9 15 1013.9 1013.0 0.0
27/11:30am 28.5 28.1 18.0 53 6.7 E 17 28 9 15 1014.4 - 0.0
27/11:00am 28.1 27.1 17.6 53 6.7 E 19 32 10 17 1014.9 - 0.0
27/10:30am 28.2 27.4 18.0 54 6.5 ENE 19 30 10 16 1015.4 - 0.0
27/10:00am 28.2 28.3 19.1 57 5.9 E 17 28 9 15 1015.5 - 0.0
27/09:30am 27.2 27.2 19.0 61 5.3 E 17 28 9 15 1015.5 - 0.0
27/09:00am 26.6 26.5 19.5 65 4.6 ESE 19 32 10 17 1015.1 1014.2 0.0
27/08:30am 25.1 26.9 20.4 75 3.1 SSE 11 15 6 8 1014.9 - 0.0
27/08:00am 22.6 25.5 19.8 84 1.8 WNW 4 7 2 4 1014.7 - 0.0
27/07:30am 21.1 24.5 19.4 90 1.1 CALM 0 0 0 0 1014.4 - 0.0
27/07:00am 19.5 22.4 18.3 93 0.7 CALM 0 0 0 0 1013.9 - 0.0
27/06:30am 19.7 21.9 18.4 92 0.8 SW 4 9 2 5 1013.4 - 0.0
27/06:00am 20.2 22.6 18.7 91 0.9 W 4 7 2 4 1013.1 1012.2 0.0
27/05:30am 20.3 22.8 19.1 93 0.8 SSW 4 7 2 4 1012.8 - 0.0
27/05:00am 20.1 22.0 18.9 93 0.8 W 7 9 4 5 1012.7 - 0.0
27/04:30am 20.3 23.6 19.0 92 0.8 CALM 0 6 0 3 1012.8 - 0.0
27/04:00am 20.4 23.3 19.1 92 0.8 E 2 7 1 4 1012.9 - 0.0
27/03:30am 20.9 23.7 19.7 93 0.8 S 4 11 2 6 1012.8 - 0.0
27/03:00am 20.5 23.8 19.0 91 0.9 CALM 0 0 0 0 1012.9 1012.0 0.0
27/02:30am 20.7 24.0 19.0 90 1.1 CALM 0 0 0 0 1013.1 - 0.0
27/02:00am 21.1 24.5 19.4 90 1.1 CALM 0 0 0 0 1013.2 - 0.0
27/01:30am 21.2 24.5 19.1 88 1.3 CALM 0 0 0 0 1013.4 - 0.0
27/01:00am 21.3 24.0 19.4 89 1.2 S 4 9 2 5 1013.6 - 0.0
27/12:30am 21.7 24.7 19.3 86 1.5 NE 2 7 1 4 1013.8 - 0.0
27/12:00am 22.8 26.4 19.8 83 1.9 CALM 0 0 0 0 1014.3 1013.4 0.0
 
Date/Time
EST
Temp
°C
App
Temp
°C
Dew
Point
Rel
Hum
%
Delta-T
°C
Wind Press
QNH
hPa
Press
MSL
hPa
Rain
since 9 am
mm
Dir
 
Spd
km/h
Gust
km/h
Spd
kts
Gust
kts
26/11:30pm 23.0 24.9 19.8 82 2.1 NNE 9 13 5 7 1014.4 - 0.0
26/11:00pm 23.2 25.3 19.4 79 2.4 NNE 7 13 4 7 1014.5 - 0.0
26/10:30pm 23.4 25.1 19.3 78 2.6 NE 9 13 5 7 1014.6 - 0.0
26/10:00pm 23.6 25.3 19.3 77 2.8 NNE 9 13 5 7 1014.7 - 0.0
26/09:30pm 23.9 25.8 19.8 78 2.7 ENE 9 15 5 8 1014.8 - 0.0
26/09:00pm 22.8 25.1 19.8 83 1.9 NNE 7 9 4 5 1014.5 1013.6 0.0
26/08:30pm 22.8 25.1 19.8 83 1.9 N 7 11 4 6 1014.3 - 0.0
26/08:00pm 23.2 25.5 19.8 81 2.2 N 7 13 4 7 1014.1 - 0.0
26/07:30pm 23.5 25.4 19.8 80 2.4 NNE 9 13 5 7 1013.7 - 0.0
26/07:00pm 24.5 26.4 19.8 75 3.1 NE 9 17 5 9 1013.3 - 0.0
26/06:30pm 25.2 27.8 19.3 70 3.8 ENE 4 9 2 5 1013.0 - 0.0
26/06:00pm 26.3 26.7 18.9 63 4.8 NE 15 26 8 14 1012.4 1011.5 0.0
26/05:30pm 28.0 27.8 17.5 52 6.7 ENE 15 24 8 13 1012.1 - 0.0
26/05:00pm 29.1 27.9 16.0 45 8.2 ENE 17 30 9 16 1011.8 - 0.0
26/04:30pm 30.1 28.7 14.6 39 9.5 E 15 28 8 15 1011.5 - 0.0
26/04:00pm 30.7 29.0 13.5 35 10.4 E 15 24 8 13 1011.4 - 0.0
26/03:30pm 29.3 30.3 17.8 50 7.4 ESE 9 17 5 9 1011.2 - 0.0
26/03:00pm 30.2 30.2 18.0 48 7.9 ESE 15 24 8 13 1011.1 1010.2 0.0
26/02:30pm 30.5 30.2 16.5 43 8.8 E 13 22 7 12 1011.0 - 0.0
26/02:00pm 32.0 30.5 16.3 39 9.9 SSE 19 24 10 13 1011.1 - 0.0
26/01:30pm 31.8 31.3 17.7 43 9.1 ESE 17 28 9 15 1011.3 - 0.0
26/01:00pm 32.0 31.1 18.2 43 9.0 SE 20 26 11 14 1011.4 - 0.0
26/12:30pm 31.6 33.3 18.6 46 8.5 E 7 15 4 8 1011.7 - 0.0
26/12:00pm 31.0 32.5 19.0 48 7.9 ESE 9 15 5 8 1012.0 1011.1 0.0
26/11:30am 30.3 32.3 19.9 53 6.9 NE 9 15 5 8 1012.5 - 0.0
26/11:00am 28.9 31.1 21.1 62 5.2 S 11 13 6 7 1013.0 - 0.0
26/10:30am 29.8 32.0 21.2 60 5.8 NE 11 20 6 11 1013.3 - 0.0
26/10:00am 29.4 32.0 21.9 64 5.1 NE 11 19 6 10 1013.5 - 0.0
26/09:30am 28.1 30.1 21.6 68 4.4 NE 13 17 7 9 1013.4 - 0.0
26/09:00am 27.1 30.3 22.3 75 3.3 NE 9 15 5 8 1013.3 1012.4 0.0
26/08:30am 24.7 28.5 21.6 83 2.1 E 4 9 2 5 1013.0 - 0.0
26/08:00am 23.2 27.0 20.9 87 1.5 E 2 6 1 3 1012.9 - 0.0
26/07:30am 21.8 26.0 21.0 95 0.5 CALM 0 0 0 0 1012.8 - 0.0
26/07:00am 20.1 23.2 19.4 96 0.4 E 2 6 1 3 1012.6 - 0.0
26/06:30am 20.0 23.3 19.0 94 0.6 CALM 0 0 0 0 1012.3 - 0.0
26/06:00am 20.4 23.9 19.6 95 0.5 CALM 0 0 0 0 1012.1 1011.2 0.0
26/05:30am 20.5 24.1 19.7 95 0.5 CALM 0 0 0 0 1012.1 - 0.0
26/05:00am 20.6 22.8 19.6 94 0.6 ENE 7 9 4 5 1011.9 - 0.0
26/04:30am 21.0 23.6 20.0 94 0.6 SE 6 7 3 4 1011.9 - 0.0
26/04:00am 21.4 24.1 20.6 95 0.5 ESE 7 7 4 4 1011.8 - 0.0
26/03:30am 21.6 24.4 20.8 95 0.5 ESE 7 9 4 5 1012.0 - 0.0
26/03:00am 21.9 24.5 21.2 96 0.5 E 9 11 5 6 1011.9 1011.0 0.0
26/02:30am 21.8 25.0 21.3 97 0.3 SE 6 7 3 4 1011.9 - 0.0
26/02:00am 21.3 24.0 20.6 96 0.5 ESE 7 9 4 5 1011.9 - 0.0
26/01:30am 21.0 24.7 20.0 94 0.6 CALM 0 0 0 0 1012.2 - 0.0
26/01:00am 21.2 25.1 20.4 95 0.5 CALM 0 7 0 4 1012.4 - 0.0
26/12:30am 21.6 24.4 20.8 95 0.5 WSW 7 17 4 9 1012.6 - 0.0
26/12:00am 21.2 25.0 20.2 94 0.6 CALM 0 0 0 0 1012.7 1011.8 0.0
 
Date/Time
EST
Temp
°C
App
Temp
°C
Dew
Point
Rel
Hum
%
Delta-T
°C
Wind Press
QNH
hPa
Press
MSL
hPa
Rain
since 9 am
mm
Dir
 
Spd
km/h
Gust
km/h
Spd
kts
Gust
kts
25/11:30pm 21.3 25.1 20.1 93 0.8 CALM 0 0 0 0 1012.7 - 0.0
25/11:00pm 21.8 25.8 20.6 93 0.8 CALM 0 0 0 0 1012.9 - 0.0
25/10:30pm 21.7 25.6 20.3 92 0.9 CALM 0 0 0 0 1013.1 - 0.0
25/10:00pm 22.2 26.2 20.5 90 1.1 CALM 0 0 0 0 1013.0 - 0.0
25/09:30pm 22.4 26.4 20.5 89 1.2 CALM 0 0 0 0 1013.1 - 0.0
25/09:00pm 23.2 26.2 20.9 87 1.5 NE 6 9 3 5 1012.9 1012.0 0.0
25/08:30pm 23.7 26.8 21.0 85 1.8 NE 6 7 3 4 1012.4 - 0.0
25/08:00pm 24.3 26.7 21.6 85 1.8 NNE 11 15 6 8 1011.9 - 0.0
25/07:30pm 25.1 28.0 21.8 82 2.2 NE 9 15 5 8 1011.3 - 0.0
25/07:00pm 26.0 29.1 22.1 79 2.6 NE 9 17 5 9 1010.7 - 0.0
25/06:30pm 27.0 29.7 22.2 75 3.2 NE 11 15 6 8 1010.4 - 0.0
25/06:00pm 27.8 30.6 21.6 69 4.2 NE 9 15 5 8 1010.1 1009.2 0.0
25/05:30pm 29.0 31.8 21.5 64 5.1 NE 9 15 5 8 1009.8 - 0.0
25/05:00pm 30.2 31.6 21.0 58 6.2 ENE 15 20 8 11 1009.6 - 0.0
25/04:30pm 30.7 32.6 20.6 54 6.7 NE 11 17 6 9 1009.3 - 0.0
25/04:00pm 31.0 32.7 20.9 55 6.8 ENE 13 17 7 9 1009.1 - 0.0
25/03:30pm 30.6 32.8 21.1 57 6.4 ENE 11 17 6 9 1009.0 - 0.0
25/03:00pm 30.3 32.8 21.1 58 6.2 ENE 9 13 5 7 1009.2 1008.3 0.0
25/02:30pm 29.8 32.4 20.4 57 6.2 NNE 7 11 4 6 1009.4 - 0.0
25/02:00pm 29.8 31.6 19.5 54 6.8 ENE 9 15 5 8 1009.5 - 0.0
25/01:30pm 29.8 32.4 20.4 57 6.2 NNE 7 13 4 7 1009.8 - 0.0
25/01:00pm 30.0 32.2 19.7 54 6.8 SE 7 13 4 7 1010.1 - 0.0
25/12:30pm 31.8 34.3 21.0 52 7.3 NE 9 15 5 8 1010.5 - 0.0

Other Formats:

Comma delimited format used in spreadsheet applications
http://www.bom.gov.au/fwo/IDQ60801/IDQ60801.94183.axf

JavaScript Object Notation format (JSON) in row-major order
http://www.bom.gov.au/fwo/IDQ60801/IDQ60801.94183.json